sensor_id;sensor_type;location;lat;lon;timestamp;pressure;altitude;pressure_sealevel;temperature;humidity
66524;BME280;53350;52.210;5.160;2023-05-12T00:01:10;101784.44;;;14.33;80.72
66524;BME280;53350;52.210;5.160;2023-05-12T00:03:38;101790.53;;;14.31;80.64
66524;BME280;53350;52.210;5.160;2023-05-12T00:06:04;101783.66;;;14.30;81.01
66524;BME280;53350;52.210;5.160;2023-05-12T00:08:31;101792.31;;;14.27;81.11
66524;BME280;53350;52.210;5.160;2023-05-12T00:10:58;101790.66;;;14.21;81.17
66524;BME280;53350;52.210;5.160;2023-05-12T00:13:24;101784.66;;;14.15;81.97
66524;BME280;53350;52.210;5.160;2023-05-12T00:15:51;101784.63;;;14.18;81.97
66524;BME280;53350;52.210;5.160;2023-05-12T00:18:19;101782.97;;;14.14;82.08
66524;BME280;53350;52.210;5.160;2023-05-12T00:20:47;101785.63;;;14.07;83.19
66524;BME280;53350;52.210;5.160;2023-05-12T00:23:13;101781.34;;;14.05;83.31
66524;BME280;53350;52.210;5.160;2023-05-12T00:25:40;101782.25;;;14.01;83.78
66524;BME280;53350;52.210;5.160;2023-05-12T00:28:06;101777.00;;;14.07;83.19
66524;BME280;53350;52.210;5.160;2023-05-12T00:30:33;101790.84;;;14.03;83.79
66524;BME280;53350;52.210;5.160;2023-05-12T00:32:59;101787.44;;;14.01;83.73
66524;BME280;53350;52.210;5.160;2023-05-12T00:35:25;101784.91;;;13.96;83.55
66524;BME280;53350;52.210;5.160;2023-05-12T00:37:53;101777.19;;;13.90;83.63
66524;BME280;53350;52.210;5.160;2023-05-12T00:40:20;101780.66;;;13.89;84.14
66524;BME280;53350;52.210;5.160;2023-05-12T00:42:46;101776.44;;;13.82;84.29
66524;BME280;53350;52.210;5.160;2023-05-12T00:45:13;101773.81;;;13.83;83.95
66524;BME280;53350;52.210;5.160;2023-05-12T00:47:40;101767.72;;;13.89;83.73
66524;BME280;53350;52.210;5.160;2023-05-12T00:50:07;101773.78;;;13.86;84.05
66524;BME280;53350;52.210;5.160;2023-05-12T00:52:35;101769.53;;;13.79;84.35
66524;BME280;53350;52.210;5.160;2023-05-12T00:55:03;101768.78;;;13.69;84.77
66524;BME280;53350;52.210;5.160;2023-05-12T00:57:32;101766.19;;;13.69;84.99
66524;BME280;53350;52.210;5.160;2023-05-12T00:59:58;101769.63;;;13.70;84.64
66524;BME280;53350;52.210;5.160;2023-05-12T01:02:25;101763.66;;;13.65;85.16
66524;BME280;53350;52.210;5.160;2023-05-12T01:04:51;101763.66;;;13.65;85.31
66524;BME280;53350;52.210;5.160;2023-05-12T01:07:20;101765.34;;;13.69;85.06
66524;BME280;53350;52.210;5.160;2023-05-12T01:09:47;101770.47;;;13.72;85.06
66524;BME280;53350;52.210;5.160;2023-05-12T01:12:15;101771.38;;;13.69;85.26
66524;BME280;53350;52.210;5.160;2023-05-12T01:14:41;101756.66;;;13.73;85.21
66524;BME280;53350;52.210;5.160;2023-05-12T01:17:10;101760.94;;;13.74;84.84
66524;BME280;53350;52.210;5.160;2023-05-12T01:19:40;101754.09;;;13.68;85.42
66524;BME280;53350;52.210;5.160;2023-05-12T01:22:07;101753.25;;;13.69;85.23
66524;BME280;53350;52.210;5.160;2023-05-12T01:24:39;101748.91;;;13.73;85.29
66524;BME280;53350;52.210;5.160;2023-05-12T01:27:10;101749.84;;;13.66;85.55
66524;BME280;53350;52.210;5.160;2023-05-12T01:29:37;101748.09;;;13.68;85.93
66524;BME280;53350;52.210;5.160;2023-05-12T01:32:04;101747.22;;;13.67;85.70
66524;BME280;53350;52.210;5.160;2023-05-12T01:34:32;101741.16;;;13.68;85.62
66524;BME280;53350;52.210;5.160;2023-05-12T01:37:00;101738.53;;;13.71;85.59
66524;BME280;53350;52.210;5.160;2023-05-12T01:39:26;101741.09;;;13.76;85.36
66524;BME280;53350;52.210;5.160;2023-05-12T01:41:52;101747.09;;;13.80;85.60
66524;BME280;53350;52.210;5.160;2023-05-12T01:44:21;101742.75;;;13.82;85.31
66524;BME280;53350;52.210;5.160;2023-05-12T01:46:47;101740.97;;;13.85;85.21
66524;BME280;53350;52.210;5.160;2023-05-12T01:49:14;101734.94;;;13.85;85.00
66524;BME280;53350;52.210;5.160;2023-05-12T01:51:41;101735.81;;;13.85;85.21
66524;BME280;53350;52.210;5.160;2023-05-12T01:54:07;101734.06;;;13.84;85.11
66524;BME280;53350;52.210;5.160;2023-05-12T01:56:33;101737.59;;;13.80;85.56
66524;BME280;53350;52.210;5.160;2023-05-12T01:59:00;101735.00;;;13.79;85.86
66524;BME280;53350;52.210;5.160;2023-05-12T02:01:28;101735.88;;;13.79;85.84
66524;BME280;53350;52.210;5.160;2023-05-12T02:03:56;101741.06;;;13.79;85.57
66524;BME280;53350;52.210;5.160;2023-05-12T02:06:23;101728.19;;;13.71;85.76
66524;BME280;53350;52.210;5.160;2023-05-12T02:08:50;101741.13;;;13.71;86.19
66524;BME280;53350;52.210;5.160;2023-05-12T02:11:16;101737.69;;;13.71;85.79
66524;BME280;53350;52.210;5.160;2023-05-12T02:13:43;101738.53;;;13.71;86.03
66524;BME280;53350;52.210;5.160;2023-05-12T02:16:09;101747.13;;;13.75;86.25
66524;BME280;53350;52.210;5.160;2023-05-12T02:18:37;101737.59;;;13.77;86.43
66524;BME280;53350;52.210;5.160;2023-05-12T02:21:04;101745.34;;;13.79;86.01
66524;BME280;53350;52.210;5.160;2023-05-12T02:23:31;101739.41;;;13.73;86.11
66524;BME280;53350;52.210;5.160;2023-05-12T02:25:57;101741.97;;;13.75;86.27
66524;BME280;53350;52.210;5.160;2023-05-12T02:28:24;101747.09;;;13.78;86.32
66524;BME280;53350;52.210;5.160;2023-05-12T02:30:50;101735.03;;;13.76;86.39
66524;BME280;53350;52.210;5.160;2023-05-12T02:33:17;101738.53;;;13.74;86.22
66524;BME280;53350;52.210;5.160;2023-05-12T02:35:46;101742.81;;;13.74;86.61
66524;BME280;53350;52.210;5.160;2023-05-12T02:38:12;101733.31;;;13.76;86.81
66524;BME280;53350;52.210;5.160;2023-05-12T02:40:39;101728.97;;;13.78;86.63
66524;BME280;53350;52.210;5.160;2023-05-12T02:43:05;101735.88;;;13.79;86.70
66524;BME280;53350;52.210;5.160;2023-05-12T02:45:32;101732.47;;;13.74;86.54
66524;BME280;53350;52.210;5.160;2023-05-12T02:47:58;101742.84;;;13.72;86.51
66524;BME280;53350;52.210;5.160;2023-05-12T02:50:25;101734.31;;;13.66;86.90
66524;BME280;53350;52.210;5.160;2023-05-12T02:52:53;101734.28;;;13.64;86.63
66524;BME280;53350;52.210;5.160;2023-05-12T02:55:19;101738.69;;;13.59;86.79
66524;BME280;53350;52.210;5.160;2023-05-12T02:57:45;101739.53;;;13.60;86.91
66524;BME280;53350;52.210;5.160;2023-05-12T03:00:13;101725.81;;;13.53;87.65
66524;BME280;53350;52.210;5.160;2023-05-12T03:02:40;101732.69;;;13.54;87.04
66524;BME280;53350;52.210;5.160;2023-05-12T03:05:07;101732.66;;;13.59;87.07
66524;BME280;53350;52.210;5.160;2023-05-12T03:07:34;101725.84;;;13.50;87.82
66524;BME280;53350;52.210;5.160;2023-05-12T03:10:02;101717.19;;;13.49;87.44
66524;BME280;53350;52.210;5.160;2023-05-12T03:12:29;101724.06;;;13.53;87.56
66524;BME280;53350;52.210;5.160;2023-05-12T03:14:56;101717.13;;;13.59;87.46
66524;BME280;53350;52.210;5.160;2023-05-12T03:17:22;101719.69;;;13.60;87.32
66524;BME280;53350;52.210;5.160;2023-05-12T03:19:48;101718.88;;;13.55;87.58
66524;BME280;53350;52.210;5.160;2023-05-12T03:22:15;101719.72;;;13.55;87.46
66524;BME280;53350;52.210;5.160;2023-05-12T03:24:42;101707.63;;;13.59;87.38
66524;BME280;53350;52.210;5.160;2023-05-12T03:27:09;101711.03;;;13.61;87.10
66524;BME280;53350;52.210;5.160;2023-05-12T03:29:36;101707.59;;;13.62;86.99
66524;BME280;53350;52.210;5.160;2023-05-12T03:32:03;101711.97;;;13.57;87.24
66524;BME280;53350;52.210;5.160;2023-05-12T03:34:30;101705.00;;;13.62;87.15
66524;BME280;53350;52.210;5.160;2023-05-12T03:36:56;101706.72;;;13.63;86.94
66524;BME280;53350;52.210;5.160;2023-05-12T03:39:22;101707.56;;;13.64;86.82
66524;BME280;53350;52.210;5.160;2023-05-12T03:41:49;101704.16;;;13.62;87.15
66524;BME280;53350;52.210;5.160;2023-05-12T03:44:17;101710.16;;;13.64;86.89
66524;BME280;53350;52.210;5.160;2023-05-12T03:46:43;101705.06;;;13.56;87.13
66524;BME280;53350;52.210;5.160;2023-05-12T03:49:10;101711.16;;;13.52;87.32
66524;BME280;53350;52.210;5.160;2023-05-12T03:51:36;101714.59;;;13.51;87.19
66524;BME280;53350;52.210;5.160;2023-05-12T03:54:03;101717.22;;;13.48;87.31
66524;BME280;53350;52.210;5.160;2023-05-12T03:56:29;101714.75;;;13.38;87.73
66524;BME280;53350;52.210;5.160;2023-05-12T03:58:56;101709.59;;;13.35;87.93
66524;BME280;53350;52.210;5.160;2023-05-12T04:01:24;101707.84;;;13.36;87.94
66524;BME280;53350;52.210;5.160;2023-05-12T04:03:50;101708.66;;;13.39;87.95
66524;BME280;53350;52.210;5.160;2023-05-12T04:06:17;101706.97;;;13.40;87.94
66524;BME280;53350;52.210;5.160;2023-05-12T04:08:43;101706.09;;;13.38;88.22
66524;BME280;53350;52.210;5.160;2023-05-12T04:11:09;101708.69;;;13.36;88.15
66524;BME280;53350;52.210;5.160;2023-05-12T04:13:36;101701.81;;;13.38;87.95
66524;BME280;53350;52.210;5.160;2023-05-12T04:16:03;101694.91;;;13.36;88.15
66524;BME280;53350;52.210;5.160;2023-05-12T04:18:31;101694.91;;;13.33;88.18
66524;BME280;53350;52.210;5.160;2023-05-12T04:20:57;101693.19;;;13.35;88.02
66524;BME280;53350;52.210;5.160;2023-05-12T04:23:24;101698.31;;;13.39;88.42
66524;BME280;53350;52.210;5.160;2023-05-12T04:25:50;101689.66;;;13.44;88.18
66524;BME280;53350;52.210;5.160;2023-05-12T04:28:17;101695.72;;;13.43;88.46
66524;BME280;53350;52.210;5.160;2023-05-12T04:30:43;101693.94;;;13.48;88.08
66524;BME280;53350;52.210;5.160;2023-05-12T04:33:10;101700.88;;;13.44;88.28
66524;BME280;53350;52.210;5.160;2023-05-12T04:35:38;101712.03;;;13.48;88.19
66524;BME280;53350;52.210;5.160;2023-05-12T04:38:04;101705.97;;;13.50;87.94
66524;BME280;53350;52.210;5.160;2023-05-12T04:40:31;101705.97;;;13.52;88.11
66524;BME280;53350;52.210;5.160;2023-05-12T04:42:57;101715.44;;;13.54;87.93
66524;BME280;53350;52.210;5.160;2023-05-12T04:45:23;101718.03;;;13.54;88.31
66524;BME280;53350;52.210;5.160;2023-05-12T04:47:50;101713.72;;;13.52;88.80
66524;BME280;53350;52.210;5.160;2023-05-12T04:50:16;101719.78;;;13.51;88.27
66524;BME280;53350;52.210;5.160;2023-05-12T04:52:44;101725.81;;;13.51;88.38
66524;BME280;53350;52.210;5.160;2023-05-12T04:55:10;101734.38;;;13.56;88.18
66524;BME280;53350;52.210;5.160;2023-05-12T04:57:37;101735.28;;;13.54;88.50
66524;BME280;53350;52.210;5.160;2023-05-12T05:00:06;101735.28;;;13.54;88.45
66524;BME280;53350;52.210;5.160;2023-05-12T05:02:33;101743.88;;;13.57;88.49
66524;BME280;53350;52.210;5.160;2023-05-12T05:04:59;101744.69;;;13.60;88.28
66524;BME280;53350;52.210;5.160;2023-05-12T05:07:29;101745.59;;;13.55;88.84
66524;BME280;53350;52.210;5.160;2023-05-12T05:09:57;101751.66;;;13.56;88.41
66524;BME280;53350;52.210;5.160;2023-05-12T05:12:23;101752.53;;;13.53;88.85
66524;BME280;53350;52.210;5.160;2023-05-12T05:14:50;101763.88;;;13.40;89.96
66524;BME280;53350;52.210;5.160;2023-05-12T05:17:17;101759.50;;;13.50;89.07
66524;BME280;53350;52.210;5.160;2023-05-12T05:19:43;101760.31;;;13.53;89.36
66524;BME280;53350;52.210;5.160;2023-05-12T05:22:10;101757.69;;;13.56;89.10
66524;BME280;53350;52.210;5.160;2023-05-12T05:24:36;101774.97;;;13.54;89.76
66524;BME280;53350;52.210;5.160;2023-05-12T05:27:04;101784.53;;;13.46;90.50
66524;BME280;53350;52.210;5.160;2023-05-12T05:29:31;101776.66;;;13.55;89.50
66524;BME280;53350;52.210;5.160;2023-05-12T05:31:57;101775.84;;;13.53;89.77
66524;BME280;53350;52.210;5.160;2023-05-12T05:34:24;101781.84;;;13.55;89.69
66524;BME280;53350;52.210;5.160;2023-05-12T05:36:50;101788.75;;;13.56;89.98
66524;BME280;53350;52.210;5.160;2023-05-12T05:39:17;101782.72;;;13.57;89.71
66524;BME280;53350;52.210;5.160;2023-05-12T05:41:43;101787.03;;;13.54;90.09
66524;BME280;53350;52.210;5.160;2023-05-12T05:44:11;101795.66;;;13.57;90.00
66524;BME280;53350;52.210;5.160;2023-05-12T05:46:37;101782.78;;;13.51;90.79
66524;BME280;53350;52.210;5.160;2023-05-12T05:49:03;101789.63;;;13.57;90.32
66524;BME280;53350;52.210;5.160;2023-05-12T05:51:30;101782.56;;;13.70;89.56
66524;BME280;53350;52.210;5.160;2023-05-12T05:53:57;101784.31;;;13.69;89.79
66524;BME280;53350;52.210;5.160;2023-05-12T05:56:23;101786.88;;;13.71;89.96
66524;BME280;53350;52.210;5.160;2023-05-12T05:58:50;101790.31;;;13.71;89.74
66524;BME280;53350;52.210;5.160;2023-05-12T06:01:18;101796.38;;;13.72;90.29
66524;BME280;53350;52.210;5.160;2023-05-12T06:03:44;101788.59;;;13.73;89.68
66524;BME280;53350;52.210;5.160;2023-05-12T06:06:10;101784.22;;;13.77;89.88
66524;BME280;53350;52.210;5.160;2023-05-12T06:08:37;101800.63;;;13.78;89.66
66524;BME280;53350;52.210;5.160;2023-05-12T06:11:03;101788.47;;;13.84;89.63
66524;BME280;53350;52.210;5.160;2023-05-12T06:13:30;101794.47;;;13.88;89.33
66524;BME280;53350;52.210;5.160;2023-05-12T06:15:56;101795.28;;;13.96;89.20
66524;BME280;53350;52.210;5.160;2023-05-12T06:18:24;101796.06;;;14.00;89.13
66524;BME280;53350;52.210;5.160;2023-05-12T06:20:50;101796.00;;;14.06;88.81
66524;BME280;53350;52.210;5.160;2023-05-12T06:23:17;101797.72;;;14.07;88.77
66524;BME280;53350;52.210;5.160;2023-05-12T06:25:43;101798.53;;;14.14;88.12
66524;BME280;53350;52.210;5.160;2023-05-12T06:28:10;101811.41;;;14.18;88.04
66524;BME280;53350;52.210;5.160;2023-05-12T06:30:36;101806.22;;;14.18;88.51
66524;BME280;53350;52.210;5.160;2023-05-12T06:33:04;101804.44;;;14.23;87.79
66524;BME280;53350;52.210;5.160;2023-05-12T06:35:32;101807.03;;;14.22;88.07
66524;BME280;53350;52.210;5.160;2023-05-12T06:37:58;101805.34;;;14.21;88.46
66524;BME280;53350;52.210;5.160;2023-05-12T06:40:25;101807.81;;;14.30;88.00
66524;BME280;53350;52.210;5.160;2023-05-12T06:42:51;101807.78;;;14.32;87.43
66524;BME280;53350;52.210;5.160;2023-05-12T06:45:18;101808.63;;;14.34;87.49
66524;BME280;53350;52.210;5.160;2023-05-12T06:47:45;101803.31;;;14.44;87.00
66524;BME280;53350;52.210;5.160;2023-05-12T06:50:11;101814.53;;;14.45;87.45
66524;BME280;53350;52.210;5.160;2023-05-12T06:52:40;101814.38;;;14.57;86.51
66524;BME280;53350;52.210;5.160;2023-05-12T06:55:07;101818.69;;;14.60;86.50
66524;BME280;53350;52.210;5.160;2023-05-12T06:57:34;101816.94;;;14.62;86.80
66524;BME280;53350;52.210;5.160;2023-05-12T07:00:00;101816.09;;;14.58;86.69
66524;BME280;53350;52.210;5.160;2023-05-12T07:02:27;101819.31;;;14.79;85.77
66524;BME280;53350;52.210;5.160;2023-05-12T07:04:53;101815.88;;;14.77;85.72
66524;BME280;53350;52.210;5.160;2023-05-12T07:07:20;101827.88;;;14.84;85.62
66524;BME280;53350;52.210;5.160;2023-05-12T07:09:48;101827.03;;;14.84;85.75
66524;BME280;53350;52.210;5.160;2023-05-12T07:12:14;101820.03;;;14.90;85.35
66524;BME280;53350;52.210;5.160;2023-05-12T07:14:41;101830.19;;;15.03;85.24
66524;BME280;53350;52.210;5.160;2023-05-12T07:17:07;101825.88;;;15.05;85.10
66524;BME280;53350;52.210;5.160;2023-05-12T07:19:34;101831.72;;;15.16;84.10
66524;BME280;53350;52.210;5.160;2023-05-12T07:22:00;101832.56;;;15.18;84.25
66524;BME280;53350;52.210;5.160;2023-05-12T07:24:27;101832.53;;;15.21;84.03
66524;BME280;53350;52.210;5.160;2023-05-12T07:26:55;101832.38;;;15.29;83.46
66524;BME280;53350;52.210;5.160;2023-05-12T07:29:21;101834.91;;;15.35;83.76
66524;BME280;53350;52.210;5.160;2023-05-12T07:31:48;101840.84;;;15.42;83.47
66524;BME280;53350;52.210;5.160;2023-05-12T07:34:14;101840.03;;;15.40;83.24
66524;BME280;53350;52.210;5.160;2023-05-12T07:36:41;101842.50;;;15.46;83.25
66524;BME280;53350;52.210;5.160;2023-05-12T07:39:08;101855.34;;;15.54;82.55
66524;BME280;53350;52.210;5.160;2023-05-12T07:41:34;101851.84;;;15.56;82.65
66524;BME280;53350;52.210;5.160;2023-05-12T07:44:02;101858.59;;;15.67;81.78
66524;BME280;53350;52.210;5.160;2023-05-12T07:46:28;101848.19;;;15.68;81.81
66524;BME280;53350;52.210;5.160;2023-05-12T07:48:55;101862.72;;;15.80;81.21
66524;BME280;53350;52.210;5.160;2023-05-12T07:51:21;101863.63;;;15.79;81.84
66524;BME280;53350;52.210;5.160;2023-05-12T07:53:48;101852.34;;;15.80;81.78
66524;BME280;53350;52.210;5.160;2023-05-12T07:56:14;101864.47;;;15.79;81.78
66524;BME280;53350;52.210;5.160;2023-05-12T07:58:41;101857.25;;;15.95;81.15
66524;BME280;53350;52.210;5.160;2023-05-12T08:01:08;101864.25;;;15.93;81.31
66524;BME280;53350;52.210;5.160;2023-05-12T08:03:35;101859.00;;;15.95;81.59
66524;BME280;53350;52.210;5.160;2023-05-12T08:06:01;101867.50;;;16.03;81.43
66524;BME280;53350;52.210;5.160;2023-05-12T08:08:29;101862.13;;;16.14;81.25
66524;BME280;53350;52.210;5.160;2023-05-12T08:10:56;101868.03;;;16.22;80.82
66524;BME280;53350;52.210;5.160;2023-05-12T08:13:22;101863.56;;;16.29;80.27
66524;BME280;53350;52.210;5.160;2023-05-12T08:15:50;101859.06;;;16.37;80.23
66524;BME280;53350;52.210;5.160;2023-05-12T08:18:18;101860.53;;;16.50;80.44
66524;BME280;53350;52.210;5.160;2023-05-12T08:20:45;101864.53;;;16.65;80.38
66524;BME280;53350;52.210;5.160;2023-05-12T08:23:11;101863.41;;;16.79;79.97
66524;BME280;53350;52.210;5.160;2023-05-12T08:25:38;101866.47;;;16.98;78.94
66524;BME280;53350;52.210;5.160;2023-05-12T08:28:05;101874.84;;;17.12;78.94
66524;BME280;53350;52.210;5.160;2023-05-12T08:30:31;101870.13;;;17.28;77.09
66524;BME280;53350;52.210;5.160;2023-05-12T08:32:58;101876.00;;;17.35;75.90
66524;BME280;53350;52.210;5.160;2023-05-12T08:35:26;101880.31;;;17.37;76.49
66524;BME280;53350;52.210;5.160;2023-05-12T08:37:53;101883.50;;;17.49;75.00
66524;BME280;53350;52.210;5.160;2023-05-12T08:40:21;101882.53;;;17.53;74.22
66524;BME280;53350;52.210;5.160;2023-05-12T08:42:48;101885.06;;;17.56;74.89
66524;BME280;53350;52.210;5.160;2023-05-12T08:45:20;101886.03;;;17.52;74.83
66524;BME280;53350;52.210;5.160;2023-05-12T08:47:48;101889.16;;;17.66;73.75
66524;BME280;53350;52.210;5.160;2023-05-12T08:50:16;101892.81;;;17.59;74.21
66524;BME280;53350;52.210;5.160;2023-05-12T08:52:44;101893.66;;;17.60;74.09
66524;BME280;53350;52.210;5.160;2023-05-12T08:55:11;101894.88;;;17.81;73.37
66524;BME280;53350;52.210;5.160;2023-05-12T08:57:39;101887.75;;;17.87;73.65
66524;BME280;53350;52.210;5.160;2023-05-12T09:00:10;101890.22;;;17.94;73.22
66524;BME280;53350;52.210;5.160;2023-05-12T09:02:38;101901.22;;;18.05;72.49
66524;BME280;53350;52.210;5.160;2023-05-12T09:05:06;101900.16;;;18.12;72.71
66524;BME280;53350;52.210;5.160;2023-05-12T09:07:33;101888.41;;;18.29;71.90
66524;BME280;53350;52.210;5.160;2023-05-12T09:10:02;101897.63;;;18.40;72.23
66524;BME280;53350;52.210;5.160;2023-05-12T09:12:33;101893.88;;;18.51;71.40
66524;BME280;53350;52.210;5.160;2023-05-12T09:15:04;101898.19;;;18.52;71.54
66524;BME280;53350;52.210;5.160;2023-05-12T09:17:32;101896.84;;;18.68;69.83
66524;BME280;53350;52.210;5.160;2023-05-12T09:19:58;101901.16;;;18.69;70.12
66524;BME280;53350;52.210;5.160;2023-05-12T09:22:28;101899.19;;;18.77;69.65
66524;BME280;53350;52.210;5.160;2023-05-12T09:24:55;101900.91;;;18.79;69.12
66524;BME280;53350;52.210;5.160;2023-05-12T09:27:26;101895.50;;;18.86;69.53
66524;BME280;53350;52.210;5.160;2023-05-12T09:29:53;101898.47;;;19.02;69.86
66524;BME280;53350;52.210;5.160;2023-05-12T09:32:28;101905.03;;;19.16;69.46
66524;BME280;53350;52.210;5.160;2023-05-12T09:34:56;101909.97;;;19.25;68.53
66524;BME280;53350;52.210;5.160;2023-05-12T09:37:29;101896.34;;;19.42;68.56
66524;BME280;53350;52.210;5.160;2023-05-12T09:39:59;101903.81;;;19.54;68.04
66524;BME280;53350;52.210;5.160;2023-05-12T09:42:29;101907.88;;;19.63;67.11
66524;BME280;53350;52.210;5.160;2023-05-12T09:44:59;101908.56;;;19.68;67.20
66524;BME280;53350;52.210;5.160;2023-05-12T09:47:32;101909.09;;;19.78;67.09
66524;BME280;53350;52.210;5.160;2023-05-12T09:50:00;101912.09;;;19.67;67.09
66524;BME280;53350;52.210;5.160;2023-05-12T09:52:27;101910.94;;;19.76;66.67
66524;BME280;53350;52.210;5.160;2023-05-12T09:54:54;101912.66;;;19.77;66.18
66524;BME280;53350;52.210;5.160;2023-05-12T09:57:20;101918.16;;;19.68;66.37
66524;BME280;53350;52.210;5.160;2023-05-12T09:59:50;101912.25;;;19.62;65.99
66524;BME280;53350;52.210;5.160;2023-05-12T10:02:17;101917.78;;;19.53;66.75
66524;BME280;53350;52.210;5.160;2023-05-12T10:04:48;101921.16;;;19.57;66.74
66524;BME280;53350;52.210;5.160;2023-05-12T10:07:15;101918.50;;;19.58;68.37
66524;BME280;53350;52.210;5.160;2023-05-12T10:09:43;101917.97;;;19.74;67.56
66524;BME280;53350;52.210;5.160;2023-05-12T10:12:10;101916.94;;;19.79;67.16
66524;BME280;53350;52.210;5.160;2023-05-12T10:14:37;101920.41;;;19.80;66.98
66524;BME280;53350;52.210;5.160;2023-05-12T10:17:06;101924.97;;;19.73;66.46
66524;BME280;53350;52.210;5.160;2023-05-12T10:19:34;101927.63;;;19.72;66.25
66524;BME280;53350;52.210;5.160;2023-05-12T10:22:00;101917.13;;;19.73;65.45
66524;BME280;53350;52.210;5.160;2023-05-12T10:24:28;101927.69;;;19.70;65.46
66524;BME280;53350;52.210;5.160;2023-05-12T10:26:54;101921.44;;;19.74;65.88
66524;BME280;53350;52.210;5.160;2023-05-12T10:29:22;101922.06;;;19.83;65.15
66524;BME280;53350;52.210;5.160;2023-05-12T10:31:53;101923.56;;;19.90;65.61
66524;BME280;53350;52.210;5.160;2023-05-12T10:34:22;101924.81;;;20.05;64.46
66524;BME280;53350;52.210;5.160;2023-05-12T10:36:51;101911.72;;;20.05;64.35
66524;BME280;53350;52.210;5.160;2023-05-12T10:39:18;101915.66;;;20.17;65.34
66524;BME280;53350;52.210;5.160;2023-05-12T10:41:45;101910.16;;;20.24;64.32
66524;BME280;53350;52.210;5.160;2023-05-12T10:44:11;101913.72;;;20.22;64.93
66524;BME280;53350;52.210;5.160;2023-05-12T10:46:37;101919.78;;;20.24;63.74
66524;BME280;53350;52.210;5.160;2023-05-12T10:49:07;101925.00;;;20.24;63.51
66524;BME280;53350;52.210;5.160;2023-05-12T10:51:46;101923.88;;;20.31;64.08
66524;BME280;53350;52.210;5.160;2023-05-12T10:54:18;101914.56;;;20.47;63.47
66524;BME280;53350;52.210;5.160;2023-05-12T10:56:46;101913.41;;;20.55;63.14
66524;BME280;53350;52.210;5.160;2023-05-12T10:59:15;101915.06;;;20.57;62.26
66524;BME280;53350;52.210;5.160;2023-05-12T11:01:55;101920.88;;;20.65;62.63
66524;BME280;53350;52.210;5.160;2023-05-12T11:04:22;101922.41;;;20.73;61.69
66524;BME280;53350;52.210;5.160;2023-05-12T11:06:57;101923.63;;;20.86;61.47
66524;BME280;53350;52.210;5.160;2023-05-12T11:09:25;101919.78;;;20.95;61.45
66524;BME280;53350;52.210;5.160;2023-05-12T11:11:51;101914.38;;;20.99;61.27
66524;BME280;53350;52.210;5.160;2023-05-12T11:14:19;101914.69;;;21.14;60.94
66524;BME280;53350;52.210;5.160;2023-05-12T11:16:45;101913.28;;;21.27;59.89
66524;BME280;53350;52.210;5.160;2023-05-12T11:19:12;101915.91;;;21.27;60.16
66524;BME280;53350;52.210;5.160;2023-05-12T11:21:38;101918.50;;;21.27;59.56
66524;BME280;53350;52.210;5.160;2023-05-12T11:24:07;101916.84;;;21.26;59.57
66524;BME280;53350;52.210;5.160;2023-05-12T11:26:34;101918.22;;;21.35;58.59
66524;BME280;53350;52.210;5.160;2023-05-12T11:29:02;101919.38;;;21.28;58.89
66524;BME280;53350;52.210;5.160;2023-05-12T11:31:29;101933.69;;;21.41;57.91
66524;BME280;53350;52.210;5.160;2023-05-12T11:34:02;101921.75;;;21.34;57.69
66524;BME280;53350;52.210;5.160;2023-05-12T11:36:35;101933.34;;;21.28;58.44
66524;BME280;53350;52.210;5.160;2023-05-12T11:39:01;101927.97;;;21.31;57.49
66524;BME280;53350;52.210;5.160;2023-05-12T11:41:31;101924.63;;;21.28;58.81
66524;BME280;53350;52.210;5.160;2023-05-12T11:43:58;101928.88;;;21.30;57.71
66524;BME280;53350;52.210;5.160;2023-05-12T11:46:25;101935.69;;;21.34;57.30
66524;BME280;53350;52.210;5.160;2023-05-12T11:48:55;101930.72;;;21.28;58.15
66524;BME280;53350;52.210;5.160;2023-05-12T11:51:22;101933.16;;;21.33;56.78
66524;BME280;53350;52.210;5.160;2023-05-12T11:53:49;101933.50;;;21.46;56.33
66524;BME280;53350;52.210;5.160;2023-05-12T11:56:17;101931.59;;;21.51;57.45
66524;BME280;53350;52.210;5.160;2023-05-12T11:58:53;101928.19;;;21.69;57.18
66524;BME280;53350;52.210;5.160;2023-05-12T12:01:20;101932.25;;;21.77;57.14
66524;BME280;53350;52.210;5.160;2023-05-12T12:03:48;101927.56;;;21.85;57.09
66524;BME280;53350;52.210;5.160;2023-05-12T12:06:15;101923.34;;;21.81;55.94
66524;BME280;53350;52.210;5.160;2023-05-12T12:08:49;101918.16;;;21.79;56.06
66524;BME280;53350;52.210;5.160;2023-05-12T12:11:16;101928.41;;;21.85;56.22
66524;BME280;53350;52.210;5.160;2023-05-12T12:13:46;101918.63;;;21.89;55.76
66524;BME280;53350;52.210;5.160;2023-05-12T12:16:15;101927.81;;;21.79;55.37
66524;BME280;53350;52.210;5.160;2023-05-12T12:18:41;101920.72;;;21.81;56.28
66524;BME280;53350;52.210;5.160;2023-05-12T12:21:08;101930.91;;;21.88;56.02
66524;BME280;53350;52.210;5.160;2023-05-12T12:23:34;101927.47;;;21.86;56.62
66524;BME280;53350;52.210;5.160;2023-05-12T12:26:01;101928.03;;;21.74;57.64
66524;BME280;53350;52.210;5.160;2023-05-12T12:28:27;101933.28;;;21.52;65.03
66524;BME280;53350;52.210;5.160;2023-05-12T12:30:54;101941.31;;;21.25;61.88
66524;BME280;53350;52.210;5.160;2023-05-12T12:33:21;101940.69;;;20.96;68.58
66524;BME280;53350;52.210;5.160;2023-05-12T12:35:48;101941.72;;;20.92;61.00
66524;BME280;53350;52.210;5.160;2023-05-12T12:38:15;101952.56;;;20.83;62.98
66524;BME280;53350;52.210;5.160;2023-05-12T12:40:42;101945.41;;;20.87;61.12
66524;BME280;53350;52.210;5.160;2023-05-12T12:43:08;101946.19;;;20.90;61.86
66524;BME280;53350;52.210;5.160;2023-05-12T12:45:35;101941.84;;;20.89;60.88
66524;BME280;53350;52.210;5.160;2023-05-12T12:48:01;101948.09;;;20.85;61.60
66524;BME280;53350;52.210;5.160;2023-05-12T12:50:29;101950.78;;;20.83;58.47